Time;durP1;ratioP1;P1;durP2;ratioP2;P2;SDS_P1;SDS_P2;PMS_P1;PMS_P2;Temp;Humidity;BMP_temperature;BMP_pressure;BME280_temperature;BME280_humidity;BME280_pressure;Samples;Min_cycle;Max_cycle;Signal;HPM_P1;HPM_P2
2023/03/20 00:00:51;;;;;;;17.10;8.77;;;12.60;72.90;;;;;;5100440;28;20444;-61
2023/03/20 00:03:17;;;;;;;18.30;9.23;;;12.60;72.80;;;;;;5102163;28;20479;-61
2023/03/20 00:05:43;;;;;;;16.30;8.82;;;12.60;72.80;;;;;;5094757;28;20030;-61
2023/03/20 00:08:09;;;;;;;16.73;9.73;;;12.60;72.80;;;;;;5095002;28;20027;-61
2023/03/20 00:10:41;;;;;;;17.98;9.45;;;12.60;72.80;;;;;;5097487;28;20034;-61
2023/03/20 00:13:13;;;;;;;16.33;8.70;;;12.50;72.80;;;;;;5098893;28;20383;-61
2023/03/20 00:15:41;;;;;;;14.98;8.75;;;12.50;72.70;;;;;;5093630;28;20039;-61
2023/03/20 00:18:34;;;;;;;16.40;8.65;;;12.50;72.70;;;;;;5096983;28;20085;-61
2023/03/20 00:21:00;;;;;;;17.90;8.45;;;12.50;72.60;;;;;;5095280;28;20040;-61
2023/03/20 00:23:27;;;;;;;14.43;7.60;;;12.50;72.80;;;;;;5100144;28;20055;-61
2023/03/20 00:25:53;;;;;;;17.05;8.07;;;12.50;72.80;;;;;;5093621;28;20072;-61
2023/03/20 00:28:28;;;;;;;16.40;8.55;;;12.50;72.70;;;;;;5101605;28;20057;-61
2023/03/20 00:30:54;;;;;;;15.52;8.38;;;12.50;72.60;;;;;;5098521;28;20107;-61
2023/03/20 00:33:21;;;;;;;17.13;9.35;;;12.40;72.60;;;;;;5098974;28;20405;-61
2023/03/20 00:35:48;;;;;;;15.35;8.57;;;12.40;72.60;;;;;;5095226;28;20436;-61
2023/03/20 00:38:13;;;;;;;16.48;9.00;;;12.50;72.60;;;;;;5101391;28;20020;-61
2023/03/20 00:40:40;;;;;;;16.65;8.75;;;12.40;72.60;;;;;;5099820;28;20055;-61
2023/03/20 00:43:06;;;;;;;14.20;9.23;;;12.40;72.60;;;;;;5094965;28;20113;-61
2023/03/20 00:45:34;;;;;;;14.93;8.10;;;12.40;72.60;;;;;;5094873;28;20123;-61
2023/03/20 00:48:00;;;;;;;15.82;8.52;;;12.40;72.50;;;;;;5098916;28;20109;-61
2023/03/20 00:50:29;;;;;;;17.45;8.57;;;12.40;72.50;;;;;;5094000;28;20019;-61
2023/03/20 00:52:58;;;;;;;16.63;8.27;;;12.40;72.50;;;;;;5089193;28;20407;-61
2023/03/20 00:55:28;;;;;;;15.15;8.75;;;12.40;72.40;;;;;;5095591;28;20439;-61
2023/03/20 00:57:57;;;;;;;14.00;8.73;;;12.40;72.30;;;;;;5097600;28;20457;-61
2023/03/20 01:00:43;;;;;;;15.40;8.80;;;12.40;72.30;;;;;;5082184;28;20093;-61
2023/03/20 01:03:14;;;;;;;13.43;8.32;;;12.40;72.10;;;;;;5102807;28;20024;-61
2023/03/20 01:05:40;;;;;;;15.10;9.15;;;12.40;72.10;;;;;;5094473;28;20112;-59
2023/03/20 01:08:19;;;;;;;16.63;9.50;;;12.40;72.20;;;;;;5093130;28;20052;-60
2023/03/20 01:10:49;;;;;;;16.42;10.15;;;12.30;72.10;;;;;;5096140;28;20020;-60
2023/03/20 01:13:37;;;;;;;17.63;11.20;;;12.30;72.10;;;;;;5098736;28;20036;-60
2023/03/20 01:16:03;;;;;;;16.02;9.77;;;12.40;72.20;;;;;;5096924;28;20032;-60
2023/03/20 01:18:28;;;;;;;17.38;10.18;;;12.40;72.30;;;;;;5101013;28;20020;-60
2023/03/20 01:20:54;;;;;;;20.08;11.25;;;12.30;72.20;;;;;;5084876;28;20039;-60
2023/03/20 01:23:25;;;;;;;16.85;9.20;;;12.30;72.30;;;;;;5105817;28;20115;-60
2023/03/20 01:25:51;;;;;;;17.25;10.95;;;12.30;72.30;;;;;;5096127;28;20031;-60
2023/03/20 01:28:20;;;;;;;17.75;10.93;;;12.30;72.40;;;;;;5098964;28;20034;-60
2023/03/20 01:30:47;;;;;;;18.15;11.23;;;12.30;72.60;;;;;;5105390;28;20020;-60
2023/03/20 01:33:21;;;;;;;17.95;11.35;;;12.30;72.40;;;;;;5093398;28;20047;-60
2023/03/20 01:35:52;;;;;;;22.15;12.02;;;12.30;72.50;;;;;;5094552;28;20032;-60
2023/03/20 01:38:24;;;;;;;19.10;12.00;;;12.30;72.50;;;;;;5093647;28;20043;-60
2023/03/20 01:41:03;;;;;;;18.52;11.50;;;12.30;72.50;;;;;;5095243;28;20091;-60
2023/03/20 01:43:32;;;;;;;18.08;10.75;;;12.30;72.50;;;;;;5093111;28;20031;-61
2023/03/20 01:46:18;;;;;;;19.23;11.18;;;12.20;72.30;;;;;;5095139;28;20469;-60
2023/03/20 01:48:51;;;;;;;15.20;9.27;;;12.30;72.30;;;;;;5093874;28;20039;-61
2023/03/20 01:51:24;;;;;;;19.33;9.18;;;12.30;73.00;;;;;;5100503;28;20020;-59
2023/03/20 01:54:03;;;;;;;20.05;8.55;;;12.30;72.30;;;;;;5094175;28;20056;-64
2023/03/20 01:56:36;;;;;;;16.10;8.82;;;12.20;72.20;;;;;;5093581;28;20016;-60
2023/03/20 01:59:14;;;;;;;17.83;9.18;;;12.20;72.20;;;;;;5107560;28;20024;-60
2023/03/20 02:01:42;;;;;;;19.38;9.55;;;12.20;72.20;;;;;;5089669;28;20294;-60
2023/03/20 02:04:09;;;;;;;15.35;9.40;;;12.20;72.20;;;;;;5102592;28;20055;-60
2023/03/20 02:06:52;;;;;;;16.17;8.07;;;12.20;72.20;;;;;;5093858;28;20058;-60
2023/03/20 02:09:51;;;;;;;14.63;8.25;;;12.20;72.20;;;;;;5069066;28;20365;-60
2023/03/20 02:12:24;;;;;;;16.13;8.60;;;12.10;72.20;;;;;;5091518;28;20074;-60
2023/03/20 02:14:51;;;;;;;16.48;8.85;;;12.10;72.10;;;;;;5094096;28;20028;-60
2023/03/20 02:17:32;;;;;;;15.65;8.45;;;12.10;72.10;;;;;;5092454;28;20093;-60
2023/03/20 02:20:13;;;;;;;14.63;8.23;;;12.10;72.10;;;;;;5081952;28;20038;-60
2023/03/20 02:23:11;;;;;;;15.38;8.15;;;12.10;72.10;;;;;;5098171;28;20084;-60
2023/03/20 02:26:02;;;;;;;13.35;7.93;;;12.10;72.00;;;;;;5090783;28;20020;-60
2023/03/20 02:28:58;;;;;;;15.15;8.13;;;12.10;72.00;;;;;;5095882;28;20027;-60
2023/03/20 02:31:30;;;;;;;13.27;7.18;;;12.10;71.90;;;;;;5099101;28;20016;-60
2023/03/20 02:34:21;;;;;;;12.98;7.00;;;12.10;71.90;;;;;;5087093;28;20461;-60
2023/03/20 02:37:16;;;;;;;13.10;6.57;;;12.10;71.80;;;;;;5080222;28;20031;-60
2023/03/20 02:39:51;;;;;;;11.30;5.78;;;12.10;71.50;;;;;;5092333;28;20063;-60
2023/03/20 02:42:36;;;;;;;11.05;5.28;;;12.10;71.30;;;;;;5094036;28;20111;-60
2023/03/20 02:45:15;;;;;;;11.55;5.30;;;12.10;71.10;;;;;;5101546;28;20100;-60
2023/03/20 02:47:50;;;;;;;9.95;4.57;;;12.10;70.70;;;;;;5100205;28;20043;-60
2023/03/20 02:50:39;;;;;;;9.65;4.70;;;12.10;70.50;;;;;;5091843;28;20443;-60
2023/03/20 02:53:27;;;;;;;8.70;3.85;;;12.00;70.10;;;;;;5105686;28;20123;-60
2023/03/20 02:55:56;;;;;;;9.85;3.65;;;12.00;69.70;;;;;;5080974;28;20032;-59
2023/03/20 02:58:49;;;;;;;8.90;3.80;;;12.00;69.50;;;;;;5074901;28;20127;-60
2023/03/20 03:01:52;;;;;;;9.52;3.78;;;12.00;69.10;;;;;;5092913;28;20024;-60
2023/03/20 03:04:23;;;;;;;8.40;3.50;;;12.00;69.50;;;;;;5078929;28;20035;-60
2023/03/20 03:06:54;;;;;;;9.57;3.40;;;12.00;68.80;;;;;;5079394;28;20016;-60
2023/03/20 03:09:43;;;;;;;7.50;3.72;;;12.00;68.50;;;;;;5094295;28;20445;-60
2023/03/20 03:12:20;;;;;;;6.72;3.28;;;12.00;68.20;;;;;;5093863;28;20047;-60
2023/03/20 03:14:52;;;;;;;8.70;3.60;;;12.00;68.00;;;;;;5091363;28;20370;-60
2023/03/20 03:17:21;;;;;;;9.25;3.67;;;12.00;68.00;;;;;;5078959;28;20024;-60
2023/03/20 03:20:01;;;;;;;10.95;4.30;;;12.00;67.90;;;;;;5095850;28;20024;-60
2023/03/20 03:22:33;;;;;;;9.10;4.28;;;12.00;67.80;;;;;;5089503;28;20028;-60
2023/03/20 03:24:59;;;;;;;10.77;3.95;;;12.00;68.00;;;;;;5094400;28;20189;-59
2023/03/20 03:27:35;;;;;;;10.82;4.38;;;11.90;68.00;;;;;;5092514;28;20031;-60
2023/03/20 03:30:06;;;;;;;10.32;4.35;;;11.90;67.90;;;;;;5100556;28;20035;-60
2023/03/20 03:32:39;;;;;;;7.97;4.13;;;11.90;68.00;;;;;;5096709;28;20028;-60
2023/03/20 03:35:06;;;;;;;7.72;3.65;;;11.90;68.10;;;;;;5107069;28;20285;-60
2023/03/20 03:37:41;;;;;;;14.45;4.18;;;11.90;68.10;;;;;;5096522;28;20135;-60
2023/03/20 03:40:16;;;;;;;10.27;5.10;;;11.90;68.10;;;;;;5100538;28;20031;-60
2023/03/20 03:43:07;;;;;;;13.10;4.88;;;11.90;68.20;;;;;;5095756;28;20056;-60
2023/03/20 03:45:41;;;;;;;12.20;5.07;;;11.90;68.20;;;;;;5100452;28;20043;-60
2023/03/20 03:48:19;;;;;;;9.30;4.47;;;11.90;68.30;;;;;;5093553;28;20444;-60
2023/03/20 03:50:56;;;;;;;12.75;5.07;;;11.80;68.30;;;;;;5090020;28;20025;-60
2023/03/20 03:53:47;;;;;;;10.98;5.00;;;11.80;68.30;;;;;;5095785;28;20069;-60
2023/03/20 03:56:15;;;;;;;12.83;5.53;;;11.80;68.40;;;;;;5101870;28;20055;-60
2023/03/20 03:58:46;;;;;;;10.68;5.68;;;11.80;68.50;;;;;;5087900;28;20028;-60
2023/03/20 04:01:15;;;;;;;12.50;5.88;;;11.80;68.50;;;;;;5098630;28;20020;-60
2023/03/20 04:03:47;;;;;;;11.20;5.50;;;11.70;68.50;;;;;;5096314;28;20097;-60
2023/03/20 04:06:15;;;;;;;11.38;6.07;;;11.70;68.60;;;;;;5100974;28;20021;-60
2023/03/20 04:08:42;;;;;;;12.77;5.43;;;11.70;68.70;;;;;;5096365;28;20055;-60
2023/03/20 04:11:34;;;;;;;10.63;5.95;;;11.70;68.70;;;;;;5090213;28;20024;-60
2023/03/20 04:14:01;;;;;;;14.43;6.30;;;11.70;68.70;;;;;;5083855;28;20183;-60
2023/03/20 04:16:27;;;;;;;12.35;6.63;;;11.70;68.80;;;;;;5094469;28;20024;-60
2023/03/20 04:18:54;;;;;;;14.77;6.72;;;11.70;68.80;;;;;;5095914;28;20016;-60
2023/03/20 04:21:20;;;;;;;14.05;6.32;;;11.60;68.80;;;;;;5097980;28;20365;-60
2023/03/20 04:23:47;;;;;;;12.48;6.97;;;11.60;68.80;;;;;;5094119;28;20083;-60
2023/03/20 04:26:13;;;;;;;12.02;6.90;;;11.60;68.80;;;;;;5096283;28;20024;-59
2023/03/20 04:28:39;;;;;;;15.35;7.40;;;11.60;68.80;;;;;;5097039;28;20089;-59
2023/03/20 04:31:23;;;;;;;16.35;9.02;;;11.60;68.80;;;;;;5095106;28;20058;-60
2023/03/20 04:34:06;;;;;;;18.48;9.02;;;11.60;68.90;;;;;;5083293;28;20051;-60
2023/03/20 04:36:51;;;;;;;20.35;8.65;;;11.50;69.00;;;;;;5095999;28;20422;-60
2023/03/20 04:39:18;;;;;;;21.65;11.48;;;11.50;69.00;;;;;;5095128;28;20046;-60
2023/03/20 04:41:44;;;;;;;18.73;10.27;;;11.40;69.10;;;;;;5092615;28;20028;-60
2023/03/20 04:44:10;;;;;;;21.70;11.45;;;11.50;69.20;;;;;;5094723;28;20012;-60
2023/03/20 04:46:36;;;;;;;19.83;11.18;;;11.50;69.30;;;;;;5095614;28;20032;-60
2023/03/20 04:49:07;;;;;;;19.40;11.23;;;11.40;69.30;;;;;;5095374;28;20073;-60
2023/03/20 04:51:33;;;;;;;18.73;10.45;;;11.40;69.40;;;;;;5098359;28;20399;-60
2023/03/20 04:53:59;;;;;;;19.27;10.70;;;11.40;69.30;;;;;;5094187;28;20016;-60
2023/03/20 04:56:25;;;;;;;18.23;10.68;;;11.30;69.30;;;;;;5098168;28;20035;-59
2023/03/20 04:58:55;;;;;;;22.17;11.40;;;11.30;69.40;;;;;;5094753;28;20024;-60
2023/03/20 05:01:22;;;;;;;23.02;11.57;;;11.30;69.40;;;;;;5099551;28;20135;-60
2023/03/20 05:03:48;;;;;;;20.88;11.02;;;11.40;69.40;;;;;;5093649;28;20023;-60
2023/03/20 05:06:14;;;;;;;20.38;10.30;;;11.30;69.40;;;;;;5093594;28;20019;-60
2023/03/20 05:08:42;;;;;;;19.00;11.02;;;11.30;69.40;;;;;;5094708;28;20028;-60
2023/03/20 05:11:07;;;;;;;19.35;11.07;;;11.30;69.40;;;;;;5101142;28;20046;-60
2023/03/20 05:13:50;;;;;;;16.80;9.32;;;11.30;69.40;;;;;;5088015;28;20027;-60
2023/03/20 05:16:39;;;;;;;17.48;9.90;;;11.30;69.40;;;;;;5091156;28;20028;-60
2023/03/20 05:19:31;;;;;;;;;;;11.30;69.30;;;;;;5088866;28;20113;-60
2023/03/20 05:22:06;;;;;;;20.77;8.77;;;11.30;69.30;;;;;;5096617;28;19919;-60
2023/03/20 05:24:52;;;;;;;16.80;8.95;;;11.30;69.30;;;;;;5088898;28;20048;-60
2023/03/20 05:27:36;;;;;;;16.92;9.60;;;11.20;69.10;;;;;;5092997;28;20038;-60
2023/03/20 05:30:18;;;;;;;;;;;11.20;69.10;;;;;;5106104;28;20024;-62
2023/03/20 05:33:02;;;;;;;15.63;7.28;;;11.20;69.20;;;;;;5095206;28;19958;-60
2023/03/20 05:35:28;;;;;;;14.45;7.20;;;11.20;69.20;;;;;;5098463;28;20056;-60
2023/03/20 05:38:12;;;;;;;15.27;8.10;;;11.20;69.20;;;;;;5091688;28;20047;-60
2023/03/20 05:40:59;;;;;;;14.82;7.97;;;11.20;69.10;;;;;;5095475;28;20032;-60
2023/03/20 05:43:42;;;;;;;15.60;8.07;;;11.20;69.00;;;;;;5093601;28;20051;-60
2023/03/20 05:46:37;;;;;;;13.27;7.35;;;11.10;68.90;;;;;;5091148;28;20092;-60
2023/03/20 05:49:26;;;;;;;15.57;7.85;;;11.10;68.90;;;;;;5081372;28;20039;-60
2023/03/20 05:52:18;;;;;;;15.65;7.40;;;11.10;68.90;;;;;;5087513;28;20528;-61
2023/03/20 05:55:03;;;;;;;15.52;8.00;;;11.20;68.90;;;;;;5093351;28;20070;-60
2023/03/20 05:57:47;;;;;;;15.38;8.57;;;11.10;68.80;;;;;;5094867;28;20101;-60
2023/03/20 06:00:27;;;;;;;14.13;6.97;;;11.10;68.80;;;;;;5092701;28;20111;-60
2023/03/20 06:03:13;;;;;;;15.63;8.05;;;11.20;68.80;;;;;;5083072;28;20050;-60
2023/03/20 06:05:59;;;;;;;16.33;8.07;;;11.20;68.70;;;;;;5081482;28;20377;-60
2023/03/20 06:08:25;;;;;;;17.83;7.70;;;11.20;68.80;;;;;;5093530;28;20050;-61
2023/03/20 06:10:51;;;;;;;15.93;6.90;;;11.20;68.70;;;;;;5093486;28;20048;-60
2023/03/20 06:13:17;;;;;;;16.85;7.60;;;11.10;68.60;;;;;;5093120;28;20024;-60
2023/03/20 06:15:43;;;;;;;14.15;7.03;;;11.20;68.60;;;;;;5094343;28;20100;-60
2023/03/20 06:18:14;;;;;;;13.15;7.22;;;11.20;68.50;;;;;;5093909;28;20051;-60
2023/03/20 06:20:40;;;;;;;16.40;8.15;;;11.20;68.50;;;;;;5093923;28;20456;-60
2023/03/20 06:23:07;;;;;;;15.00;7.40;;;11.20;68.50;;;;;;5082486;28;20469;-60
2023/03/20 06:25:33;;;;;;;14.30;6.60;;;11.20;68.40;;;;;;5096605;28;20099;-60
2023/03/20 06:27:59;;;;;;;15.25;7.00;;;11.20;68.40;;;;;;5102056;28;20036;-60
2023/03/20 06:30:25;;;;;;;13.63;7.20;;;11.20;68.30;;;;;;5107262;28;20043;-60
2023/03/20 06:32:52;;;;;;;17.02;7.78;;;11.20;68.30;;;;;;5090569;28;20539;-60
2023/03/20 06:35:20;;;;;;;14.23;7.13;;;11.20;68.20;;;;;;5089696;28;20035;-61
2023/03/20 06:37:48;;;;;;;18.05;8.48;;;11.30;68.30;;;;;;5098630;28;20475;-60
2023/03/20 06:40:21;;;;;;;11.68;7.05;;;11.30;68.20;;;;;;5093171;28;20042;-60
2023/03/20 06:42:47;;;;;;;15.98;8.13;;;11.40;68.10;;;;;;5103132;28;20089;-60
2023/03/20 06:45:14;;;;;;;14.63;7.13;;;11.40;68.00;;;;;;5092321;28;20057;-60
2023/03/20 06:47:52;;;;;;;13.05;7.03;;;11.50;68.10;;;;;;5098302;28;20012;-60
2023/03/20 06:50:18;;;;;;;13.32;7.10;;;11.50;67.90;;;;;;5093986;28;20027;-61
2023/03/20 06:52:43;;;;;;;14.65;7.40;;;11.50;67.80;;;;;;5104429;28;20394;-61
2023/03/20 06:55:39;;;;;;;14.02;7.45;;;11.50;67.80;;;;;;5081887;28;20036;-61
2023/03/20 06:58:05;;;;;;;14.77;7.07;;;11.60;67.90;;;;;;5110067;28;20028;-60
2023/03/20 07:00:33;;;;;;;13.93;8.20;;;11.60;68.50;;;;;;5091498;28;20020;-60
2023/03/20 07:03:02;;;;;;;12.13;6.95;;;11.60;67.80;;;;;;5095007;28;20024;-61
2023/03/20 07:05:28;;;;;;;17.20;8.40;;;11.60;67.70;;;;;;5092890;28;20024;-62
2023/03/20 07:07:55;;;;;;;18.48;7.82;;;11.60;67.70;;;;;;5092653;28;20380;-61
2023/03/20 07:10:22;;;;;;;15.32;7.28;;;11.60;67.80;;;;;;5092730;28;20019;-61
2023/03/20 07:12:50;;;;;;;12.10;7.35;;;11.50;67.70;;;;;;5092755;28;20431;-61
2023/03/20 07:15:17;;;;;;;15.55;8.07;;;11.50;67.70;;;;;;5086818;28;20028;-61
2023/03/20 07:17:43;;;;;;;16.23;7.45;;;11.50;67.80;;;;;;5096856;28;20088;-61
2023/03/20 07:20:10;;;;;;;14.82;7.95;;;11.60;67.80;;;;;;5090862;28;20118;-61
2023/03/20 07:22:36;;;;;;;14.63;7.22;;;11.60;67.80;;;;;;5091507;28;20380;-61
2023/03/20 07:25:21;;;;;;;16.42;8.57;;;11.60;67.80;;;;;;5092525;28;20448;-61
2023/03/20 07:27:49;;;;;;;16.15;7.95;;;11.60;67.70;;;;;;5092144;28;20081;-61
2023/03/20 07:30:17;;;;;;;13.68;7.35;;;11.60;67.70;;;;;;5093300;28;20407;-61
2023/03/20 07:32:44;;;;;;;16.65;7.95;;;11.60;67.70;;;;;;5099492;28;20158;-61
2023/03/20 07:35:10;;;;;;;15.30;7.97;;;11.60;67.60;;;;;;5090095;28;20119;-61
2023/03/20 07:37:40;;;;;;;12.27;6.97;;;11.60;67.60;;;;;;5092782;28;20025;-61
2023/03/20 07:40:07;;;;;;;16.27;7.80;;;11.60;67.60;;;;;;5096759;28;20042;-61
2023/03/20 07:42:39;;;;;;;14.75;7.40;;;11.60;67.60;;;;;;5097903;28;20023;-61
2023/03/20 07:45:11;;;;;;;15.45;8.07;;;11.60;67.60;;;;;;5092192;28;20156;-61
2023/03/20 07:47:36;;;;;;;13.77;7.80;;;11.60;67.60;;;;;;5095884;28;20416;-61
2023/03/20 07:50:04;;;;;;;13.90;7.75;;;11.60;67.60;;;;;;5093168;28;20028;-61
2023/03/20 07:52:30;;;;;;;12.57;6.90;;;11.60;67.50;;;;;;5101903;28;20024;-61
2023/03/20 07:54:56;;;;;;;14.65;7.78;;;11.50;67.50;;;;;;5105761;28;20035;-61
2023/03/20 07:57:21;;;;;;;16.05;8.57;;;11.50;67.40;;;;;;5095231;28;20031;-61
2023/03/20 07:59:47;;;;;;;16.00;7.13;;;11.50;67.40;;;;;;5093942;28;20024;-62
2023/03/20 08:02:15;;;;;;;14.23;7.10;;;11.60;67.50;;;;;;5084557;28;20020;-62
2023/03/20 08:04:41;;;;;;;13.18;6.88;;;11.60;67.40;;;;;;5090440;28;20066;-62
2023/03/20 08:07:07;;;;;;;14.07;7.30;;;11.60;67.40;;;;;;5093282;28;20052;-61
2023/03/20 08:09:33;;;;;;;12.40;6.53;;;11.60;67.40;;;;;;5089534;28;20063;-61
2023/03/20 08:11:59;;;;;;;14.73;7.38;;;11.60;67.30;;;;;;5092087;28;20401;-61
2023/03/20 08:14:25;;;;;;;12.48;6.40;;;11.60;67.20;;;;;;5092965;28;20035;-60
2023/03/20 08:16:51;;;;;;;14.82;7.20;;;11.70;67.20;;;;;;5094592;28;20038;-60
2023/03/20 08:19:17;;;;;;;13.77;6.40;;;11.60;67.10;;;;;;5092199;28;20044;-61
2023/03/20 08:21:43;;;;;;;12.30;6.63;;;11.60;67.00;;;;;;5091421;28;20042;-60
2023/03/20 08:24:09;;;;;;;14.68;6.50;;;11.70;67.10;;;;;;5093251;28;20050;-60
2023/03/20 08:26:35;;;;;;;13.95;6.47;;;11.70;67.00;;;;;;5092923;28;20028;-60
2023/03/20 08:29:01;;;;;;;15.80;6.82;;;11.70;67.00;;;;;;5091763;28;20117;-60
2023/03/20 08:31:26;;;;;;;13.07;6.18;;;11.60;66.90;;;;;;5095799;28;20054;-60
2023/03/20 08:33:54;;;;;;;17.63;7.05;;;11.60;66.90;;;;;;5093356;28;20019;-60
2023/03/20 08:36:20;;;;;;;14.82;6.28;;;11.60;66.90;;;;;;5094340;28;20040;-60
2023/03/20 08:38:47;;;;;;;16.63;6.68;;;11.60;67.60;;;;;;5093024;28;20107;-60
2023/03/20 08:41:14;;;;;;;12.15;5.75;;;11.60;66.90;;;;;;5092575;28;20022;-60
2023/03/20 08:43:40;;;;;;;15.73;6.25;;;11.60;67.50;;;;;;5091281;28;20178;-60
2023/03/20 08:46:06;;;;;;;13.63;5.90;;;11.70;66.80;;;;;;5092283;28;20436;-60
2023/03/20 08:48:32;;;;;;;12.60;5.80;;;11.70;66.70;;;;;;5096048;28;20452;-60
2023/03/20 08:50:58;;;;;;;12.35;6.10;;;11.70;66.60;;;;;;5093835;28;20032;-60
2023/03/20 08:53:24;;;;;;;13.68;6.03;;;11.70;66.60;;;;;;5091421;28;20027;-60
2023/03/20 08:55:51;;;;;;;13.55;5.80;;;11.70;66.50;;;;;;5095822;28;20031;-60
2023/03/20 08:58:18;;;;;;;11.75;5.03;;;11.80;66.50;;;;;;5094222;28;20066;-60
2023/03/20 09:00:44;;;;;;;12.32;5.28;;;11.80;66.30;;;;;;5094003;28;20039;-60
2023/03/20 09:03:16;;;;;;;13.32;6.00;;;11.80;66.30;;;;;;5089409;28;20050;-60
2023/03/20 09:05:46;;;;;;;12.40;6.00;;;11.80;66.30;;;;;;5094182;28;20038;-61
2023/03/20 09:08:12;;;;;;;11.50;4.60;;;11.90;66.10;;;;;;5092920;28;20059;-61
2023/03/20 09:10:39;;;;;;;11.57;5.03;;;11.80;66.00;;;;;;5093853;28;20066;-61
2023/03/20 09:13:05;;;;;;;12.00;6.22;;;11.80;66.00;;;;;;5091239;28;20457;-61
2023/03/20 09:15:31;;;;;;;17.23;6.72;;;11.90;65.80;;;;;;5092896;28;20039;-60
2023/03/20 09:17:57;;;;;;;16.00;5.93;;;11.90;65.80;;;;;;5093808;28;20036;-62
2023/03/20 09:20:23;;;;;;;13.63;5.47;;;12.00;65.60;;;;;;5092552;28;20338;-62
2023/03/20 09:22:49;;;;;;;10.68;4.65;;;11.90;65.40;;;;;;5082741;28;20044;-62
2023/03/20 09:25:14;;;;;;;10.85;5.03;;;12.00;65.40;;;;;;5089541;28;20106;-62
2023/03/20 09:27:40;;;;;;;12.55;5.30;;;12.00;65.30;;;;;;5091000;28;20039;-62
2023/03/20 09:30:07;;;;;;;9.38;4.47;;;12.00;65.20;;;;;;5093029;28;20023;-62
2023/03/20 09:32:34;;;;;;;11.15;4.70;;;12.00;65.10;;;;;;5092455;28;20051;-62
2023/03/20 09:35:01;;;;;;;12.93;5.13;;;12.10;64.90;;;;;;5088686;28;20027;-62
2023/03/20 09:37:27;;;;;;;10.40;4.13;;;12.10;64.70;;;;;;5094164;28;20066;-61
2023/03/20 09:39:53;;;;;;;9.85;4.32;;;12.10;64.60;;;;;;5094898;28;20035;-62
2023/03/20 09:42:28;;;;;;;10.80;4.47;;;12.10;64.50;;;;;;5091819;28;20035;-61
2023/03/20 09:45:11;;;;;;;9.48;4.55;;;12.20;64.30;;;;;;5091343;28;20035;-61
2023/03/20 09:47:55;;;;;;;10.13;4.55;;;12.30;64.20;;;;;;5092083;28;20461;-62
2023/03/20 09:50:33;;;;;;;13.05;5.00;;;12.30;64.00;;;;;;5092056;28;20032;-62
2023/03/20 09:53:12;;;;;;;9.48;4.18;;;12.30;63.90;;;;;;5092757;28;20040;-62
2023/03/20 09:55:43;;;;;;;9.00;3.22;;;12.30;63.80;;;;;;5089520;28;20036;-62
2023/03/20 09:58:19;;;;;;;7.97;3.80;;;12.30;63.80;;;;;;5070391;28;20025;-61
2023/03/20 10:00:46;;;;;;;11.23;4.70;;;12.30;63.90;;;;;;5107491;27;20460;-62
2023/03/20 10:03:20;;;;;;;9.15;3.50;;;12.30;64.00;;;;;;5089441;28;20043;-63
2023/03/20 10:05:55;;;;;;;10.77;4.53;;;12.30;64.10;;;;;;5092601;28;20032;-62
2023/03/20 10:08:43;;;;;;;10.82;4.97;;;12.30;64.30;;;;;;5099497;28;20028;-61
2023/03/20 10:11:42;;;;;;;11.05;4.20;;;12.30;64.50;;;;;;5089843;28;20035;-61
2023/03/20 10:14:35;;;;;;;10.48;4.03;;;12.30;64.90;;;;;;5091826;28;20024;-63
2023/03/20 10:17:22;;;;;;;12.75;4.57;;;12.30;65.20;;;;;;5072230;28;20367;-63
2023/03/20 10:19:57;;;;;;;10.90;4.35;;;12.30;65.60;;;;;;5089187;28;20020;-64
2023/03/20 10:22:31;;;;;;;12.93;5.03;;;12.30;65.80;;;;;;5092911;28;20031;-64
2023/03/20 10:25:03;;;;;;;12.20;4.30;;;12.40;66.10;;;;;;5093167;28;20059;-64
2023/03/20 10:27:33;;;;;;;11.02;4.75;;;12.50;66.10;;;;;;5091614;28;20417;-64
2023/03/20 10:30:17;;;;;;;12.00;4.40;;;12.50;66.10;;;;;;5092634;28;20368;-63
2023/03/20 10:33:25;;;;;;;9.50;4.53;;;12.60;66.10;;;;;;5091180;28;20056;-63
2023/03/20 10:36:26;;;;;;;9.20;4.00;;;12.70;66.10;;;;;;5054137;28;20036;-63
2023/03/20 10:39:10;;;;;;;9.25;4.10;;;12.70;66.20;;;;;;5091408;28;20111;-63
2023/03/20 10:41:39;;;;;;;13.45;4.25;;;12.70;66.10;;;;;;5092725;28;20028;-65
2023/03/20 10:44:13;;;;;;;12.25;4.45;;;12.80;66.20;;;;;;5091143;28;20352;-63
2023/03/20 10:46:47;;;;;;;11.45;4.78;;;12.80;66.10;;;;;;5091728;28;20419;-65
2023/03/20 10:49:25;;;;;;;10.70;4.40;;;12.80;66.20;;;;;;5091883;28;20035;-63
2023/03/20 10:51:58;;;;;;;14.23;4.93;;;12.80;66.40;;;;;;5089873;28;20077;-63
2023/03/20 10:54:46;;;;;;;11.55;4.40;;;12.70;66.40;;;;;;5088706;28;20028;-63
2023/03/20 10:57:22;;;;;;;9.73;4.28;;;12.70;66.20;;;;;;5106840;28;20028;-63
2023/03/20 10:59:56;;;;;;;8.27;4.18;;;12.80;66.20;;;;;;5091062;28;20067;-63
2023/03/20 11:02:27;;;;;;;13.15;3.67;;;12.80;66.00;;;;;;5092078;28;20032;-63
2023/03/20 11:04:52;;;;;;;8.50;3.33;;;12.80;65.60;;;;;;5096393;28;20020;-64
2023/03/20 11:07:30;;;;;;;9.43;3.30;;;12.80;65.60;;;;;;5092232;28;20409;-64
2023/03/20 11:10:11;;;;;;;8.02;3.03;;;12.80;65.60;;;;;;5090659;28;20020;-64
2023/03/20 11:12:51;;;;;;;8.07;3.30;;;12.80;65.60;;;;;;5092178;28;20024;-64
2023/03/20 11:15:32;;;;;;;7.93;2.65;;;12.80;65.60;;;;;;5090885;28;20123;-63
2023/03/20 11:18:00;;;;;;;9.50;3.28;;;12.80;65.60;;;;;;5091376;28;20181;-64
2023/03/20 11:20:33;;;;;;;8.02;2.80;;;12.80;65.70;;;;;;5080261;28;20055;-64
2023/03/20 11:23:03;;;;;;;7.88;3.03;;;12.80;65.70;;;;;;5094016;28;20136;-63
2023/03/20 11:25:33;;;;;;;7.50;3.03;;;12.70;65.70;;;;;;5085418;28;20157;-63
2023/03/20 11:28:43;;;;;;;8.35;3.10;;;12.70;65.90;;;;;;5073073;28;20039;-64
2023/03/20 11:31:12;;;;;;;10.45;3.08;;;12.70;66.00;;;;;;5082244;28;20028;-63
2023/03/20 11:33:44;;;;;;;9.68;3.15;;;12.70;66.10;;;;;;5094094;28;20071;-63
2023/03/20 11:36:24;;;;;;;7.90;3.28;;;12.70;66.00;;;;;;5093476;28;20020;-63
2023/03/20 11:38:51;;;;;;;10.23;3.22;;;12.60;66.00;;;;;;5094264;28;20452;-63
2023/03/20 11:41:26;;;;;;;10.88;3.53;;;12.60;66.20;;;;;;5094099;28;20035;-63
2023/03/20 11:43:52;;;;;;;10.65;3.58;;;12.60;66.20;;;;;;5093833;28;20321;-63
2023/03/20 11:46:21;;;;;;;8.52;3.80;;;12.60;66.30;;;;;;5091942;28;20024;-63
2023/03/20 11:49:03;;;;;;;10.68;3.92;;;12.60;66.30;;;;;;5092124;28;20100;-63
2023/03/20 11:51:29;;;;;;;8.90;3.92;;;12.60;66.20;;;;;;5098057;28;20032;-63
2023/03/20 11:54:01;;;;;;;9.10;3.55;;;12.60;66.10;;;;;;5102449;28;20032;-63
2023/03/20 11:56:35;;;;;;;9.43;3.58;;;12.60;66.00;;;;;;5095888;28;20479;-63
2023/03/20 11:59:10;;;;;;;8.80;3.47;;;12.70;66.00;;;;;;5088075;28;20024;-63
2023/03/20 12:01:45;;;;;;;9.70;3.72;;;12.80;65.90;;;;;;5097394;28;20020;-65
2023/03/20 12:04:41;;;;;;;10.60;3.65;;;12.70;65.70;;;;;;5092009;28;20035;-63
2023/03/20 12:07:23;;;;;;;8.38;3.17;;;12.80;65.60;;;;;;5095198;28;20059;-63
2023/03/20 12:09:56;;;;;;;8.43;2.80;;;12.80;65.70;;;;;;5078696;28;20032;-63
2023/03/20 12:12:36;;;;;;;9.07;3.15;;;12.80;65.60;;;;;;5096759;28;20032;-63
2023/03/20 12:15:11;;;;;;;9.93;3.50;;;12.80;65.50;;;;;;5094582;28;20086;-64
2023/03/20 12:17:43;;;;;;;6.70;2.90;;;12.70;65.40;;;;;;5111588;28;20027;-64
2023/03/20 12:20:45;;;;;;;10.07;3.90;;;12.70;65.40;;;;;;5095946;28;20082;-63
2023/03/20 12:23:37;;;;;;;8.88;3.17;;;12.60;65.50;;;;;;5082664;28;20048;-64
2023/03/20 12:26:10;;;;;;;9.43;3.70;;;12.60;65.70;;;;;;5098433;28;20035;-64
2023/03/20 12:28:41;;;;;;;12.15;3.88;;;12.60;65.90;;;;;;5096558;28;20016;-64
2023/03/20 12:31:16;;;;;;;;;;;12.60;66.10;;;;;;5097387;28;20390;-63
2023/03/20 12:34:04;;;;;;;8.57;2.72;;;12.60;66.20;;;;;;5097042;28;19914;-64
2023/03/20 12:36:37;;;;;;;11.35;4.13;;;12.60;66.20;;;;;;5098332;28;20050;-64
2023/03/20 12:39:10;;;;;;;8.45;3.63;;;12.60;66.40;;;;;;5095253;28;20039;-64
2023/03/20 12:42:19;;;;;;;10.23;4.05;;;12.70;66.40;;;;;;5094619;28;20360;-63
2023/03/20 12:44:54;;;;;;;9.60;3.92;;;12.70;66.40;;;;;;5094164;28;20016;-63
2023/03/20 12:47:31;;;;;;;10.00;4.10;;;12.70;66.40;;;;;;5095888;28;20024;-64
2023/03/20 12:50:16;;;;;;;9.85;4.00;;;12.70;66.70;;;;;;5093790;28;20024;-64
2023/03/20 12:53:27;;;;;;;11.00;4.25;;;12.70;66.90;;;;;;5095492;28;20106;-63
2023/03/20 12:55:57;;;;;;;9.15;3.90;;;12.70;66.80;;;;;;5092391;28;20115;-63
2023/03/20 12:58:26;;;;;;;11.10;4.35;;;12.80;66.90;;;;;;5086406;28;20050;-63
2023/03/20 13:01:01;;;;;;;13.95;4.88;;;12.80;67.20;;;;;;5095995;28;20115;-63
2023/03/20 13:04:20;;;;;;;9.65;4.68;;;12.80;67.30;;;;;;5093128;28;20027;-63
2023/03/20 13:07:04;;;;;;;10.63;4.38;;;12.80;67.40;;;;;;5047453;28;20033;-66
2023/03/20 13:09:48;;;;;;;12.00;4.20;;;12.80;67.60;;;;;;5093690;28;20020;-65
2023/03/20 13:12:25;;;;;;;13.52;4.60;;;12.80;67.60;;;;;;5094720;28;20111;-64